createdAt,value
2024-03-16T00:00:09.138Z,11.67
2024-03-16T00:02:37.004Z,11.71
2024-03-16T00:05:04.855Z,11.77
2024-03-16T00:07:32.664Z,11.73
2024-03-16T00:10:00.516Z,11.75
2024-03-16T00:12:29.558Z,11.73
2024-03-16T00:14:57.981Z,11.66
2024-03-16T00:17:25.717Z,11.54
2024-03-16T00:19:53.534Z,11.45
2024-03-16T00:22:22.547Z,11.37
2024-03-16T00:24:50.777Z,11.30
2024-03-16T00:27:19.264Z,11.27
2024-03-16T00:29:47.017Z,11.22
2024-03-16T00:32:14.809Z,11.17
2024-03-16T00:34:42.548Z,11.13
2024-03-16T00:37:10.397Z,11.09
2024-03-16T00:39:38.223Z,11.03
2024-03-16T00:42:06.075Z,11.00
2024-03-16T00:44:33.774Z,11.00
2024-03-16T00:47:01.541Z,11.02
2024-03-16T00:49:29.301Z,10.97
2024-03-16T00:51:57.349Z,10.94
2024-03-16T00:54:25.222Z,10.94
2024-03-16T00:56:53.868Z,10.94
2024-03-16T00:59:22.074Z,10.95
2024-03-16T01:01:49.895Z,10.97
2024-03-16T01:04:17.764Z,11.01
2024-03-16T01:06:45.770Z,11.07
2024-03-16T01:09:17.212Z,11.14
2024-03-16T01:11:45.193Z,11.18
2024-03-16T01:14:12.999Z,11.17
2024-03-16T01:16:41.014Z,11.21
2024-03-16T01:19:08.774Z,11.22
2024-03-16T01:21:36.657Z,11.24
2024-03-16T01:24:05.010Z,11.29
2024-03-16T01:26:32.822Z,11.35
2024-03-16T01:29:03.057Z,11.41
2024-03-16T01:31:30.819Z,11.41
2024-03-16T01:33:58.599Z,11.44
2024-03-16T01:36:26.750Z,11.44
2024-03-16T01:38:56.743Z,11.47
2024-03-16T01:41:24.840Z,11.50
2024-03-16T01:43:52.698Z,11.50
2024-03-16T01:46:20.669Z,11.44
2024-03-16T01:48:53.146Z,11.37
2024-03-16T01:51:21.159Z,11.37
2024-03-16T01:53:49.248Z,11.35
2024-03-16T01:56:17.511Z,11.33
2024-03-16T01:58:46.665Z,11.29
2024-03-16T02:01:14.643Z,11.24
2024-03-16T02:03:44.223Z,11.18
2024-03-16T02:06:12.082Z,11.12
2024-03-16T02:08:39.992Z,11.12
2024-03-16T02:11:07.813Z,11.10
2024-03-16T02:13:35.659Z,11.09
2024-03-16T02:16:04.161Z,11.09
2024-03-16T02:18:32.031Z,11.16
2024-03-16T02:20:59.827Z,11.23
2024-03-16T02:23:27.608Z,11.28
2024-03-16T02:25:55.399Z,11.33
2024-03-16T02:28:23.211Z,11.33
2024-03-16T02:30:51.061Z,11.26
2024-03-16T02:33:18.905Z,11.22
2024-03-16T02:35:46.712Z,11.21
2024-03-16T02:38:14.701Z,11.21
2024-03-16T02:40:43.556Z,11.21
2024-03-16T02:43:11.673Z,11.16
2024-03-16T02:45:39.554Z,11.09
2024-03-16T02:48:06.797Z,11.06
2024-03-16T02:50:34.629Z,11.03
2024-03-16T02:53:02.358Z,11.01
2024-03-16T02:55:29.586Z,11.01
2024-03-16T02:57:57.326Z,11.02
2024-03-16T03:00:25.530Z,11.02
2024-03-16T03:02:53.447Z,11.04
2024-03-16T03:05:23.606Z,11.08
2024-03-16T03:07:51.423Z,11.09
2024-03-16T03:10:19.285Z,11.09
2024-03-16T03:12:47.132Z,11.09
2024-03-16T03:15:15.039Z,11.07
2024-03-16T03:17:43.490Z,11.10
2024-03-16T03:20:12.441Z,11.15
2024-03-16T03:22:40.334Z,11.17
2024-03-16T03:25:08.535Z,11.18
2024-03-16T03:27:36.656Z,11.18
2024-03-16T03:30:04.874Z,11.15
2024-03-16T03:32:33.591Z,11.14
2024-03-16T03:35:01.497Z,11.11
2024-03-16T03:37:29.306Z,11.09
2024-03-16T03:39:57.421Z,11.04
2024-03-16T03:42:26.580Z,10.97
2024-03-16T03:45:12.250Z,10.90
2024-03-16T03:48:01.448Z,10.88
2024-03-16T03:50:30.212Z,10.91
2024-03-16T03:53:00.604Z,10.91
2024-03-16T03:55:28.620Z,10.89
2024-03-16T03:57:56.618Z,10.85
2024-03-16T04:00:24.735Z,10.85
2024-03-16T04:02:52.578Z,10.84
2024-03-16T04:05:20.373Z,10.85
2024-03-16T04:07:48.099Z,10.86
2024-03-16T04:10:16.114Z,10.82
2024-03-16T04:12:44.034Z,10.81
2024-03-16T04:15:11.940Z,10.83
2024-03-16T04:17:40.098Z,10.81
2024-03-16T04:20:13.705Z,10.84
2024-03-16T04:22:41.522Z,10.85
2024-03-16T04:25:10.537Z,10.82
2024-03-16T04:27:38.557Z,10.76
2024-03-16T04:30:07.514Z,10.77
2024-03-16T04:32:36.203Z,10.83
2024-03-16T04:35:04.019Z,10.86
2024-03-16T04:37:31.826Z,10.82
2024-03-16T04:39:59.782Z,10.72
2024-03-16T04:42:27.599Z,10.66
2024-03-16T04:44:55.372Z,10.66
2024-03-16T04:47:23.151Z,10.69
2024-03-16T04:49:50.964Z,10.71
2024-03-16T04:52:18.759Z,10.73
2024-03-16T04:54:47.267Z,10.70
2024-03-16T04:57:15.044Z,10.67
2024-03-16T04:59:42.768Z,10.66
2024-03-16T05:02:10.502Z,10.66
2024-03-16T05:04:38.695Z,10.64
2024-03-16T05:07:06.775Z,10.66
2024-03-16T05:09:34.564Z,10.66
2024-03-16T05:12:02.385Z,10.69
2024-03-16T05:14:30.105Z,10.77
2024-03-16T05:16:58.177Z,10.82
2024-03-16T05:19:26.668Z,10.84
2024-03-16T05:21:54.571Z,10.89
2024-03-16T05:24:22.618Z,10.94
2024-03-16T05:26:50.362Z,10.99
2024-03-16T05:29:18.172Z,11.00
2024-03-16T05:31:46.482Z,11.02
2024-03-16T05:34:14.335Z,11.06
2024-03-16T05:36:42.182Z,11.03
2024-03-16T05:39:10.413Z,11.02
2024-03-16T05:41:38.434Z,10.95
2024-03-16T05:44:06.278Z,10.93
2024-03-16T05:46:34.165Z,10.97
2024-03-16T05:49:01.985Z,11.00
2024-03-16T05:51:30.123Z,11.03
2024-03-16T05:53:58.322Z,11.01
2024-03-16T05:56:26.170Z,10.94
2024-03-16T05:58:54.030Z,10.92
2024-03-16T06:01:22.867Z,10.90
2024-03-16T06:03:52.672Z,10.89
2024-03-16T06:06:20.585Z,10.88
2024-03-16T06:08:48.641Z,10.89
2024-03-16T06:11:16.611Z,10.88
2024-03-16T06:13:45.524Z,10.92
2024-03-16T06:16:13.586Z,10.93
2024-03-16T06:18:48.094Z,10.93
2024-03-16T06:21:15.961Z,10.96
2024-03-16T06:23:43.955Z,10.97
2024-03-16T06:26:18.148Z,10.99
2024-03-16T06:28:48.511Z,11.02
2024-03-16T06:31:19.705Z,11.02
2024-03-16T06:33:49.537Z,11.00
2024-03-16T06:36:17.396Z,10.98
2024-03-16T06:38:45.166Z,11.03
2024-03-16T06:41:12.972Z,11.03
2024-03-16T06:43:40.782Z,11.07
2024-03-16T06:46:10.111Z,11.06
2024-03-16T06:48:38.057Z,11.09
2024-03-16T06:51:06.102Z,11.14
2024-03-16T06:53:33.903Z,11.13
2024-03-16T06:56:05.218Z,11.18
2024-03-16T06:58:33.144Z,11.19
2024-03-16T07:01:01.660Z,11.17
2024-03-16T07:03:29.979Z,11.17
2024-03-16T07:05:57.811Z,11.17
2024-03-16T07:08:25.699Z,11.19
2024-03-16T07:10:53.708Z,11.21
2024-03-16T07:13:21.630Z,11.24
2024-03-16T07:15:51.313Z,11.30
2024-03-16T07:18:19.473Z,11.30
2024-03-16T07:20:47.765Z,11.34
2024-03-16T07:23:16.160Z,11.40
2024-03-16T07:25:44.089Z,11.45
2024-03-16T07:28:12.896Z,11.48
2024-03-16T07:30:42.786Z,11.50
2024-03-16T07:33:12.089Z,11.50
2024-03-16T07:35:41.147Z,11.53
2024-03-16T07:38:09.416Z,11.58
2024-03-16T07:40:37.930Z,11.59
2024-03-16T07:43:07.374Z,11.62
2024-03-16T07:48:14.258Z,11.69
2024-03-16T07:50:42.222Z,11.63
2024-03-16T07:53:11.411Z,11.62
2024-03-16T07:55:39.898Z,11.65
2024-03-16T07:58:09.122Z,11.70
2024-03-16T08:00:37.403Z,11.74
2024-03-16T08:03:05.714Z,11.78
2024-03-16T08:05:36.676Z,11.81
2024-03-16T08:08:04.694Z,11.84
2024-03-16T08:10:33.445Z,11.83
2024-03-16T08:13:01.332Z,11.82
2024-03-16T08:15:29.390Z,11.80
2024-03-16T08:17:58.883Z,11.79
2024-03-16T08:20:27.149Z,11.80
2024-03-16T08:22:55.941Z,11.80
2024-03-16T08:25:24.007Z,11.79
2024-03-16T08:27:52.019Z,11.75
2024-03-16T08:30:20.014Z,11.66
2024-03-16T08:32:48.099Z,11.60
2024-03-16T08:35:16.147Z,11.55
2024-03-16T08:37:44.562Z,11.51
2024-03-16T08:40:14.434Z,11.49
2024-03-16T08:42:42.774Z,11.44
2024-03-16T08:45:11.749Z,11.40
2024-03-16T08:47:42.596Z,11.37
2024-03-16T08:50:11.037Z,11.36
2024-03-16T08:52:39.402Z,11.36
2024-03-16T08:55:07.811Z,11.39
2024-03-16T08:57:35.854Z,11.45
2024-03-16T09:00:05.657Z,11.52
2024-03-16T09:02:33.827Z,11.59
2024-03-16T09:05:02.436Z,11.63
2024-03-16T09:07:30.511Z,11.66
2024-03-16T09:09:59.203Z,11.64
2024-03-16T09:12:27.494Z,11.62
2024-03-16T09:14:56.979Z,11.63
2024-03-16T09:17:25.948Z,11.68
2024-03-16T09:19:53.928Z,11.69
2024-03-16T09:22:21.932Z,11.69
2024-03-16T09:24:49.928Z,11.72
2024-03-16T09:27:17.892Z,11.81
2024-03-16T09:29:45.950Z,11.91
2024-03-16T09:32:15.047Z,12.02
2024-03-16T09:34:43.076Z,12.11
2024-03-16T09:37:11.032Z,12.12
2024-03-16T09:39:39.964Z,12.16
2024-03-16T09:42:09.128Z,12.21
